Aérodrome :
LOGIN :

S'inscrire | Disclaimer

   EN    FR    IT 

 










Légende :    VFR   VFR Marginal   IFR   IFR Intensif   IFR Très Intensif
Visi : 
Plafond : 
>= 8 km
>= 3000ft
5 à 8 km
1000 à 3000 ft
1500m à 5 km
500 à 1000 ft
800 à 1500m
200 à 500 ft
< 800m
< 200 ft
Symboles :   Orages  Brouillard  Fortes neiges  Fortes précipitations  Vent > 20 kt
SIGMETs :   Divers  Orages  Givrage  Turbulence  Onde Orograph.  Cendres Volcan.






- Altitude de l'aérodrome : 646 ft
- Code IATA : VNO


EYVI - Vilnius int.

DERNIER METAR :
  • 180250Z 20008KT CAVOK 01/M00 Q1010 R19/2///95 NOSIG

METARs EXPIRÉS :
  • 180220Z 20009KT CAVOK 01/00 Q1010 R19/2///95 NOSIG
  • 180150Z 20009KT CAVOK 01/M00 Q1010 R19/2///95 NOSIG
  • 180120Z 20009KT CAVOK 01/M00 Q1010 R19/2///95 NOSIG
  • 180050Z 20007KT CAVOK 01/M00 Q1010 R19/2///95 NOSIG
  • 180020Z 19007KT CAVOK 01/00 Q1010 R19/2///95 NOSIG

TAF TAF EYVI
Valide du 18 à 00h jusqu'au 19 à 00h UTC


172304Z 1800/1824 21012KT 8000 NSC
TEMPO 1802/1807 5000 BR SCT005
BECMG 1807/1809 BKN020
TEMPO 1809/1824 24016G26KT 3000 SHRA BKN005 BKN015CB



MET'MAP, la Météo Aéronautique d'un coup d'oeil ! - Copyright ORBIFLY Décembre 2007 - Disclaimer

ORBIFLY MET'MAP TEAM :

Programmation & Développement : Alexandra Zaïnal
Sur une idée originale de : Baudouin d'Aumeries
Assistance à la programmation : Marc-Olivier Méhu
Soutien technique & logistique : Manuel Goepfert

Contact : metmap@orbifly.com




SOURCES & CREDITS :

   NOAA